createdAt,value
2022-12-09T00:00:22.597Z,2.99
2022-12-09T00:02:54.630Z,2.99
2022-12-09T00:05:27.043Z,2.97
2022-12-09T00:07:59.337Z,3.02
2022-12-09T00:10:31.573Z,3.15
2022-12-09T00:13:03.547Z,3.23
2022-12-09T00:15:35.593Z,3.31
2022-12-09T00:18:07.575Z,3.33
2022-12-09T00:20:39.579Z,3.36
2022-12-09T00:23:11.840Z,3.25
2022-12-09T00:25:43.778Z,3.22
2022-12-09T00:28:15.865Z,3.14
2022-12-09T00:30:47.913Z,3.08
2022-12-09T00:33:20.139Z,3.03
2022-12-09T00:35:52.172Z,3.00
2022-12-09T00:38:24.405Z,2.98
2022-12-09T00:40:56.342Z,2.96
2022-12-09T00:43:28.840Z,2.98
2022-12-09T00:46:02.159Z,3.01
2022-12-09T00:48:35.009Z,3.03
2022-12-09T00:51:09.353Z,3.02
2022-12-09T00:53:41.697Z,3.02
2022-12-09T00:56:14.732Z,3.02
2022-12-09T00:58:46.754Z,3.05
2022-12-09T01:01:18.918Z,3.09
2022-12-09T01:03:51.217Z,3.10
2022-12-09T01:06:26.167Z,3.14
2022-12-09T01:08:58.188Z,3.18
2022-12-09T01:11:30.685Z,3.23
2022-12-09T01:14:03.655Z,3.25
2022-12-09T01:16:36.665Z,3.26
2022-12-09T01:19:13.261Z,3.14
2022-12-09T01:21:45.360Z,3.13
2022-12-09T01:24:17.383Z,3.15
2022-12-09T01:26:49.709Z,3.16
2022-12-09T01:29:21.795Z,3.10
2022-12-09T01:31:55.543Z,3.04
2022-12-09T01:34:27.613Z,2.97
2022-12-09T01:36:59.842Z,2.93
2022-12-09T01:39:32.073Z,2.83
2022-12-09T01:42:05.326Z,2.75
2022-12-09T01:44:37.548Z,2.71
2022-12-09T01:47:23.156Z,2.64
2022-12-09T01:49:55.200Z,2.59
2022-12-09T01:52:27.453Z,2.55
2022-12-09T01:54:59.413Z,2.51
2022-12-09T01:57:31.794Z,2.44
2022-12-09T02:00:05.128Z,2.40
2022-12-09T02:02:38.868Z,2.36
2022-12-09T02:05:12.012Z,2.30
2022-12-09T02:07:44.437Z,2.25
2022-12-09T02:10:18.662Z,2.21
2022-12-09T02:13:11.756Z,2.16
2022-12-09T02:16:14.286Z,2.14
2022-12-09T02:19:00.686Z,2.10
2022-12-09T02:21:38.882Z,2.11
2022-12-09T02:24:23.636Z,2.05
2022-12-09T02:27:18.723Z,2.07
2022-12-09T02:30:05.965Z,2.03
2022-12-09T02:33:06.637Z,1.94
2022-12-09T02:35:57.409Z,2.07
2022-12-09T02:38:32.941Z,1.96
2022-12-09T02:41:22.509Z,1.92
2022-12-09T02:44:01.207Z,1.94
2022-12-09T02:46:36.298Z,1.97
2022-12-09T02:49:08.798Z,1.96
2022-12-09T02:51:42.659Z,2.03
2022-12-09T02:54:19.556Z,2.00
2022-12-09T02:57:00.886Z,2.03
2022-12-09T02:59:32.829Z,2.07
2022-12-09T03:02:30.366Z,2.14
2022-12-09T03:05:27.334Z,2.19
2022-12-09T03:08:23.008Z,2.21
2022-12-09T03:11:11.266Z,2.18
2022-12-09T03:14:13.198Z,2.21
2022-12-09T03:17:20.652Z,2.27
2022-12-09T03:20:02.064Z,2.29
2022-12-09T03:22:36.274Z,2.33
2022-12-09T03:25:18.305Z,2.34
2022-12-09T03:28:01.412Z,2.28
2022-12-09T03:30:38.507Z,2.21
2022-12-09T03:33:13.558Z,2.25
2022-12-09T03:35:53.153Z,2.31
2022-12-09T03:38:32.076Z,2.29
2022-12-09T03:41:24.953Z,2.33
2022-12-09T03:44:10.847Z,2.35
2022-12-09T03:46:43.477Z,2.33
2022-12-09T03:49:16.049Z,2.37
2022-12-09T03:52:28.154Z,2.37
2022-12-09T03:55:08.299Z,2.46
2022-12-09T03:57:44.175Z,2.47
2022-12-09T04:00:18.277Z,2.36
2022-12-09T04:02:50.805Z,2.41
2022-12-09T04:05:23.241Z,2.46
2022-12-09T04:07:55.364Z,2.47
2022-12-09T04:10:27.690Z,2.49
2022-12-09T04:13:00.209Z,2.40
2022-12-09T04:15:32.216Z,2.44
2022-12-09T04:18:04.357Z,2.49
2022-12-09T04:20:36.952Z,2.47
2022-12-09T04:23:08.936Z,2.48
2022-12-09T04:25:40.976Z,2.55
2022-12-09T04:28:13.242Z,2.52
2022-12-09T04:30:46.815Z,2.55
2022-12-09T04:33:18.804Z,2.52
2022-12-09T04:35:50.976Z,2.52
2022-12-09T04:38:22.966Z,2.48
2022-12-09T04:40:54.905Z,2.48
2022-12-09T04:43:27.093Z,2.53
2022-12-09T04:46:13.798Z,2.53
2022-12-09T04:48:47.055Z,2.55
2022-12-09T04:51:19.055Z,2.52
2022-12-09T04:53:51.300Z,2.44
2022-12-09T04:56:23.659Z,2.40
2022-12-09T04:58:55.932Z,2.37
2022-12-09T05:01:31.147Z,2.33
2022-12-09T05:04:04.387Z,2.28
2022-12-09T05:06:36.748Z,2.20
2022-12-09T05:09:13.418Z,2.13
2022-12-09T05:11:45.820Z,2.08
2022-12-09T05:14:18.145Z,2.02
2022-12-09T05:16:50.280Z,2.01
2022-12-09T05:19:22.802Z,2.03
2022-12-09T05:21:55.190Z,2.07
2022-12-09T05:24:27.309Z,2.01
2022-12-09T05:26:59.344Z,1.99
2022-12-09T05:29:31.547Z,1.94
2022-12-09T05:32:03.660Z,1.87
2022-12-09T05:34:35.926Z,1.84
2022-12-09T05:37:08.293Z,1.85
2022-12-09T05:39:40.776Z,1.81
2022-12-09T05:42:12.750Z,1.87
2022-12-09T05:44:44.956Z,1.94
2022-12-09T05:47:17.016Z,2.00
2022-12-09T05:49:49.165Z,2.02
2022-12-09T05:52:21.683Z,2.01
2022-12-09T05:54:53.949Z,1.93
2022-12-09T05:57:26.285Z,1.92
2022-12-09T06:00:01.365Z,1.84
2022-12-09T06:02:33.944Z,1.70
2022-12-09T06:05:07.251Z,1.59
2022-12-09T06:07:39.774Z,1.56
2022-12-09T06:10:13.068Z,1.51
2022-12-09T06:12:45.413Z,1.51
2022-12-09T06:15:21.474Z,1.49
2022-12-09T06:17:54.398Z,1.42
2022-12-09T06:20:27.220Z,1.42
2022-12-09T06:22:59.525Z,1.39
2022-12-09T06:25:31.526Z,1.38
2022-12-09T06:28:04.219Z,1.38
2022-12-09T06:30:37.229Z,1.41
2022-12-09T06:33:29.157Z,1.42
2022-12-09T06:36:04.102Z,1.37
2022-12-09T06:38:36.547Z,1.38
2022-12-09T06:41:14.253Z,1.40
2022-12-09T06:43:46.723Z,1.40
2022-12-09T06:46:24.650Z,1.33
2022-12-09T06:48:57.557Z,1.28
2022-12-09T06:51:30.098Z,1.22
2022-12-09T06:54:02.406Z,1.20
2022-12-09T06:56:34.594Z,1.18
2022-12-09T06:59:09.471Z,1.18
2022-12-09T07:01:41.863Z,1.20
2022-12-09T07:04:15.055Z,1.18
2022-12-09T07:06:48.033Z,1.19
2022-12-09T07:09:22.859Z,1.13
2022-12-09T07:11:55.348Z,1.15
2022-12-09T07:14:27.499Z,1.12
2022-12-09T07:17:00.921Z,1.13
2022-12-09T07:19:33.702Z,1.07
2022-12-09T07:22:05.677Z,1.07
2022-12-09T07:24:38.869Z,1.06
2022-12-09T07:27:19.411Z,0.94
2022-12-09T07:29:51.810Z,0.90
2022-12-09T07:32:24.318Z,0.93
2022-12-09T07:34:56.535Z,0.99
2022-12-09T07:37:29.028Z,1.07
2022-12-09T07:40:01.695Z,1.10
2022-12-09T07:42:34.197Z,1.17
2022-12-09T07:45:07.738Z,1.23
2022-12-09T07:47:40.131Z,1.23
2022-12-09T07:50:12.472Z,1.26
2022-12-09T07:52:44.687Z,1.09
2022-12-09T07:55:16.729Z,1.03
2022-12-09T07:57:48.699Z,1.01
2022-12-09T08:00:22.006Z,1.14
2022-12-09T08:02:54.082Z,1.08
2022-12-09T08:05:27.370Z,1.06
2022-12-09T08:07:59.816Z,1.04
2022-12-09T08:10:32.425Z,1.14
2022-12-09T08:13:04.930Z,1.29
2022-12-09T08:15:37.095Z,1.35
2022-12-09T08:18:09.323Z,1.35
2022-12-09T08:20:41.882Z,1.44
2022-12-09T08:23:14.315Z,1.46
2022-12-09T08:25:46.643Z,1.56
2022-12-09T08:28:18.825Z,1.70
2022-12-09T08:30:52.015Z,1.79
2022-12-09T08:33:25.299Z,1.77
2022-12-09T08:35:57.598Z,1.80
2022-12-09T08:38:32.064Z,1.87
2022-12-09T08:41:17.600Z,2.00
2022-12-09T08:43:50.029Z,2.05
2022-12-09T08:46:22.629Z,1.96
2022-12-09T08:48:54.845Z,2.02
2022-12-09T08:51:29.112Z,1.97
2022-12-09T08:54:02.383Z,2.03
2022-12-09T08:56:34.652Z,2.12
2022-12-09T08:59:06.792Z,2.17
2022-12-09T09:01:39.282Z,2.06
2022-12-09T09:04:15.321Z,1.95
2022-12-09T09:06:50.579Z,1.92
2022-12-09T09:09:23.630Z,1.96
2022-12-09T09:11:56.020Z,2.04
2022-12-09T09:14:28.518Z,2.15
2022-12-09T09:17:01.059Z,2.33
2022-12-09T09:19:33.509Z,2.49
2022-12-09T09:22:05.660Z,2.48
2022-12-09T09:24:37.816Z,2.56
2022-12-09T09:27:09.805Z,2.52
2022-12-09T09:29:41.961Z,2.61
2022-12-09T09:32:14.158Z,2.61
2022-12-09T09:34:48.700Z,2.67
2022-12-09T09:37:21.498Z,2.72
2022-12-09T09:39:53.516Z,2.77
2022-12-09T09:42:35.944Z,2.67
2022-12-09T09:45:16.580Z,2.69
2022-12-09T09:47:53.593Z,2.73
2022-12-09T09:50:47.902Z,2.68
2022-12-09T09:53:26.827Z,2.50
2022-12-09T09:56:25.634Z,2.35
2022-12-09T09:59:19.734Z,2.46
2022-12-09T10:02:23.290Z,2.45
2022-12-09T10:05:37.638Z,2.27
2022-12-09T10:08:16.399Z,2.35
2022-12-09T10:10:55.053Z,2.11
2022-12-09T10:14:07.022Z,2.05
2022-12-09T10:17:04.480Z,2.14
2022-12-09T10:19:43.629Z,2.34
2022-12-09T10:22:23.215Z,2.58
2022-12-09T10:25:00.870Z,2.69
2022-12-09T10:27:47.215Z,2.54
2022-12-09T10:30:20.726Z,2.46
2022-12-09T10:32:54.423Z,2.64
2022-12-09T10:35:29.822Z,2.64
2022-12-09T10:38:17.595Z,2.58
2022-12-09T10:41:00.689Z,2.69
2022-12-09T10:43:40.118Z,2.81
2022-12-09T10:46:21.941Z,2.82
2022-12-09T10:49:02.408Z,2.84
2022-12-09T10:51:39.640Z,2.91
2022-12-09T10:54:15.456Z,2.80
2022-12-09T10:57:13.656Z,2.88
2022-12-09T11:00:22.766Z,2.79
2022-12-09T11:02:56.776Z,2.63
2022-12-09T11:05:32.101Z,2.41
2022-12-09T11:08:05.828Z,2.54
2022-12-09T11:10:39.100Z,2.53
2022-12-09T11:13:18.895Z,2.68
2022-12-09T11:16:01.289Z,2.84
2022-12-09T11:18:48.303Z,2.88
2022-12-09T11:21:36.881Z,2.95
2022-12-09T11:24:26.287Z,2.98
2022-12-09T11:26:58.866Z,2.95
2022-12-09T11:29:31.167Z,2.82
2022-12-09T11:32:03.956Z,2.81
2022-12-09T11:34:37.793Z,2.73
2022-12-09T11:37:11.768Z,2.64
2022-12-09T11:39:51.148Z,2.61
2022-12-09T11:42:24.813Z,2.70
2022-12-09T11:45:31.808Z,2.62
2022-12-09T11:48:35.015Z,2.72
2022-12-09T11:51:20.287Z,2.40
2022-12-09T11:54:01.896Z,2.30
2022-12-09T11:56:37.230Z,2.29
2022-12-09T11:59:18.053Z,2.36
2022-12-09T12:02:42.960Z,2.44
2022-12-09T12:05:44.919Z,2.28
2022-12-09T12:08:43.758Z,2.18
2022-12-09T12:11:23.853Z,2.19
2022-12-09T12:14:13.359Z,2.35
2022-12-09T12:17:12.577Z,2.38
2022-12-09T12:19:49.774Z,2.39
2022-12-09T12:22:54.861Z,2.49
2022-12-09T12:25:26.961Z,2.49
2022-12-09T12:28:23.464Z,2.45
2022-12-09T12:31:07.096Z,2.39
2022-12-09T12:34:27.225Z,2.45
2022-12-09T12:37:15.555Z,2.59
2022-12-09T12:39:54.632Z,2.53
2022-12-09T12:42:41.492Z,2.44
2022-12-09T12:45:43.154Z,2.40
2022-12-09T12:49:17.671Z,2.46
2022-12-09T12:52:55.009Z,2.47
2022-12-09T12:55:46.092Z,2.54
2022-12-09T12:58:45.351Z,2.29
2022-12-09T13:01:39.288Z,2.33
2022-12-09T13:04:48.629Z,2.31
2022-12-09T13:07:37.063Z,2.27
2022-12-09T13:10:33.517Z,2.32
2022-12-09T13:13:17.854Z,2.42
2022-12-09T13:15:59.577Z,2.38
2022-12-09T13:18:38.811Z,2.29
2022-12-09T13:21:12.332Z,2.36
2022-12-09T13:24:31.776Z,2.53
2022-12-09T13:27:37.036Z,2.51
2022-12-09T13:30:52.565Z,2.60
2022-12-09T13:33:31.945Z,2.75
2022-12-09T13:36:12.590Z,2.85
2022-12-09T13:38:44.550Z,2.81
2022-12-09T13:41:51.727Z,2.76
2022-12-09T13:44:35.186Z,2.80
2022-12-09T13:47:28.146Z,2.81
2022-12-09T13:50:04.993Z,2.92
2022-12-09T13:52:49.162Z,2.91
2022-12-09T13:55:31.461Z,2.93
2022-12-09T13:58:53.854Z,2.86
2022-12-09T14:01:52.108Z,2.86
2022-12-09T14:04:44.950Z,2.94
2022-12-09T14:07:33.287Z,2.90
2022-12-09T14:10:07.037Z,2.87
2022-12-09T14:12:44.089Z,2.76
2022-12-09T14:15:25.609Z,2.60
2022-12-09T14:18:01.794Z,2.47
2022-12-09T14:20:38.322Z,2.47
2022-12-09T14:23:10.137Z,2.46
2022-12-09T14:25:56.516Z,2.46
2022-12-09T14:28:34.388Z,2.52
2022-12-09T14:31:08.867Z,2.57
2022-12-09T14:33:47.940Z,2.54
2022-12-09T14:36:26.686Z,2.55
2022-12-09T14:39:26.786Z,2.45
2022-12-09T14:42:13.457Z,2.36
2022-12-09T14:44:59.848Z,2.21
2022-12-09T14:47:40.049Z,2.28
2022-12-09T14:50:18.445Z,2.13
2022-12-09T14:52:58.328Z,2.03
2022-12-09T14:55:35.173Z,2.05
2022-12-09T14:58:07.213Z,2.03
2022-12-09T15:00:41.731Z,2.03
2022-12-09T15:03:33.213Z,2.07
2022-12-09T15:06:13.086Z,2.11
2022-12-09T15:08:45.855Z,2.18
2022-12-09T15:11:34.424Z,2.26
2022-12-09T15:14:27.473Z,2.18
2022-12-09T15:16:59.870Z,2.04
2022-12-09T15:22:30.424Z,2.18
2022-12-09T15:25:03.238Z,2.28
2022-12-09T15:27:35.185Z,2.15
2022-12-09T15:30:28.075Z,2.17
2022-12-09T15:33:01.060Z,2.10
2022-12-09T15:35:33.872Z,2.16
2022-12-09T15:38:08.838Z,2.11
2022-12-09T15:41:02.255Z,2.07
2022-12-09T15:43:36.545Z,2.02
2022-12-09T15:46:09.556Z,2.01
2022-12-09T15:48:48.633Z,2.04
2022-12-09T15:51:23.445Z,1.99
2022-12-09T15:54:14.881Z,2.00
2022-12-09T15:56:57.978Z,1.95
2022-12-09T15:59:56.154Z,1.91
2022-12-09T16:02:31.452Z,1.81
2022-12-09T16:05:06.998Z,1.92
2022-12-09T16:07:57.647Z,1.76
2022-12-09T16:10:29.825Z,1.73
2022-12-09T16:13:15.579Z,1.80
2022-12-09T16:15:54.675Z,1.92
2022-12-09T16:18:46.413Z,1.99
2022-12-09T16:21:27.244Z,1.98
2022-12-09T16:24:11.938Z,1.90
2022-12-09T16:26:49.779Z,1.75
2022-12-09T16:29:33.662Z,1.67
2022-12-09T16:32:40.019Z,1.65
2022-12-09T16:35:11.827Z,1.62
2022-12-09T16:38:09.421Z,1.64
2022-12-09T16:40:44.368Z,1.73
2022-12-09T16:43:16.343Z,1.81
2022-12-09T16:46:01.184Z,1.87
2022-12-09T16:48:33.212Z,1.87
2022-12-09T16:51:14.938Z,1.96
2022-12-09T16:53:50.436Z,2.03
2022-12-09T16:56:26.821Z,2.13
2022-12-09T16:58:59.844Z,2.10
2022-12-09T17:01:41.522Z,2.10
2022-12-09T17:04:24.977Z,2.15
2022-12-09T17:06:57.459Z,2.11
2022-12-09T17:09:29.471Z,2.10
2022-12-09T17:12:01.588Z,2.12
2022-12-09T17:14:33.595Z,2.22
2022-12-09T17:17:05.749Z,2.26
2022-12-09T17:19:37.711Z,2.28
2022-12-09T17:22:10.355Z,2.23
2022-12-09T17:24:42.389Z,2.23
2022-12-09T17:27:14.344Z,2.17
2022-12-09T17:29:46.306Z,2.14
2022-12-09T17:32:18.394Z,2.09
2022-12-09T17:34:50.577Z,2.10
2022-12-09T17:37:22.587Z,2.10
2022-12-09T17:40:01.611Z,2.02
2022-12-09T17:42:35.334Z,1.96
2022-12-09T17:45:08.333Z,2.01
2022-12-09T17:47:40.620Z,2.01
2022-12-09T17:50:12.587Z,2.02
2022-12-09T17:52:45.045Z,1.91
2022-12-09T17:55:17.228Z,1.94
2022-12-09T17:57:54.037Z,1.96
2022-12-09T18:00:26.261Z,1.99
2022-12-09T18:02:58.295Z,1.98
2022-12-09T18:05:30.260Z,2.00
2022-12-09T18:08:03.258Z,2.00
2022-12-09T18:10:35.270Z,2.02
2022-12-09T18:13:07.241Z,2.00
2022-12-09T18:15:39.244Z,1.97
2022-12-09T18:18:11.193Z,1.93
2022-12-09T18:20:43.159Z,1.94
2022-12-09T18:23:15.187Z,2.01
2022-12-09T18:25:47.213Z,2.00
2022-12-09T18:28:19.148Z,1.99
2022-12-09T18:30:51.148Z,1.90
2022-12-09T18:33:24.092Z,1.87
2022-12-09T18:35:55.985Z,1.90
2022-12-09T18:38:27.907Z,1.91
2022-12-09T18:41:02.465Z,1.95
2022-12-09T18:43:38.514Z,1.83
2022-12-09T18:46:14.676Z,1.84
2022-12-09T18:48:46.750Z,1.86
2022-12-09T18:51:21.819Z,1.81
2022-12-09T18:53:54.234Z,1.74
2022-12-09T18:56:27.273Z,1.79
2022-12-09T18:59:08.565Z,1.69
2022-12-09T19:01:44.737Z,1.63
2022-12-09T19:04:24.499Z,1.52
2022-12-09T19:07:00.102Z,1.58
2022-12-09T19:09:34.998Z,1.70
2022-12-09T19:12:44.831Z,1.67
2022-12-09T19:14:59.739Z,1.59
2022-12-09T19:17:32.713Z,1.49
2022-12-09T19:20:05.487Z,1.57
2022-12-09T19:22:37.603Z,1.62
2022-12-09T19:25:09.648Z,1.68
2022-12-09T19:27:41.575Z,1.59
2022-12-09T19:30:14.417Z,1.62
2022-12-09T19:32:53.843Z,1.61
2022-12-09T19:35:25.985Z,1.72
2022-12-09T19:38:01.230Z,1.78
2022-12-09T19:40:33.707Z,1.75
2022-12-09T19:43:05.690Z,1.68
2022-12-09T19:45:37.608Z,1.70
2022-12-09T19:48:10.245Z,1.81
2022-12-09T19:50:42.191Z,1.88
2022-12-09T19:53:14.141Z,1.93
2022-12-09T19:55:46.935Z,1.99
2022-12-09T19:58:18.982Z,1.95
2022-12-09T20:00:50.945Z,1.93
2022-12-09T20:03:23.480Z,1.95
2022-12-09T20:05:56.136Z,2.01
2022-12-09T20:08:28.168Z,1.86
2022-12-09T20:11:00.656Z,1.92
2022-12-09T20:13:33.280Z,1.89
2022-12-09T20:16:07.636Z,1.86
2022-12-09T20:18:39.961Z,1.92
2022-12-09T20:21:13.594Z,2.02
2022-12-09T20:23:47.391Z,2.08
2022-12-09T20:26:26.489Z,2.11
2022-12-09T20:29:06.047Z,2.11
2022-12-09T20:31:39.530Z,2.18
2022-12-09T20:34:18.910Z,2.21
2022-12-09T20:36:50.875Z,2.20
2022-12-09T20:39:23.283Z,2.19
2022-12-09T20:41:55.249Z,2.19
2022-12-09T20:44:27.248Z,2.17
2022-12-09T20:46:59.280Z,2.19
2022-12-09T20:49:31.317Z,2.24
2022-12-09T20:52:03.397Z,2.25
2022-12-09T20:54:35.429Z,2.27
2022-12-09T20:57:07.447Z,2.23
2022-12-09T20:59:39.369Z,2.25
2022-12-09T21:02:15.480Z,2.28
2022-12-09T21:04:47.451Z,2.27
2022-12-09T21:07:19.425Z,2.29
2022-12-09T21:09:51.380Z,2.25
2022-12-09T21:12:23.498Z,2.32
2022-12-09T21:14:55.624Z,2.30
2022-12-09T21:17:27.702Z,2.33
2022-12-09T21:19:59.725Z,2.33
2022-12-09T21:22:33.496Z,2.36
2022-12-09T21:25:06.334Z,2.40
2022-12-09T21:27:39.866Z,2.28
2022-12-09T21:30:12.704Z,2.24
2022-12-09T21:32:45.705Z,2.19
2022-12-09T21:35:17.719Z,2.23
2022-12-09T21:37:55.836Z,2.30
2022-12-09T21:40:28.522Z,2.38
2022-12-09T21:43:00.448Z,2.37
2022-12-09T21:45:33.049Z,2.40
2022-12-09T21:48:05.265Z,2.43
2022-12-09T21:50:37.207Z,2.45
2022-12-09T21:53:09.159Z,2.47
2022-12-09T21:55:41.202Z,2.43
2022-12-09T21:58:13.260Z,2.44
2022-12-09T22:00:45.505Z,2.35
2022-12-09T22:03:17.564Z,2.34
2022-12-09T22:05:52.617Z,2.38
2022-12-09T22:08:28.963Z,2.30
2022-12-09T22:11:01.323Z,2.38
2022-12-09T22:13:38.998Z,2.37
2022-12-09T22:16:21.439Z,2.42
2022-12-09T22:18:56.468Z,2.47
2022-12-09T22:21:31.379Z,2.46
2022-12-09T22:24:06.878Z,2.49
2022-12-09T22:26:40.096Z,2.47
2022-12-09T22:29:15.641Z,2.48
2022-12-09T22:31:47.944Z,2.43
2022-12-09T22:34:21.070Z,2.45
2022-12-09T22:36:54.326Z,2.43
2022-12-09T22:39:26.513Z,2.47
2022-12-09T22:41:58.448Z,2.41
2022-12-09T22:44:30.704Z,2.44
2022-12-09T22:47:02.693Z,2.41
2022-12-09T22:49:35.690Z,2.35
2022-12-09T22:52:07.625Z,2.29
2022-12-09T22:54:39.778Z,2.31
2022-12-09T22:57:11.708Z,2.28
2022-12-09T22:59:43.836Z,2.32
2022-12-09T23:02:15.860Z,2.36
2022-12-09T23:04:47.951Z,2.37
2022-12-09T23:07:19.983Z,2.35
2022-12-09T23:09:51.941Z,2.36
2022-12-09T23:12:23.907Z,2.34
2022-12-09T23:14:55.897Z,2.32
2022-12-09T23:17:27.840Z,2.28
2022-12-09T23:19:59.885Z,2.20
2022-12-09T23:22:31.916Z,2.24
2022-12-09T23:25:04.500Z,2.22
2022-12-09T23:27:36.658Z,2.20
2022-12-09T23:30:09.961Z,2.11
2022-12-09T23:32:42.209Z,2.13
2022-12-09T23:35:14.184Z,2.17
2022-12-09T23:37:46.162Z,2.10
2022-12-09T23:40:18.255Z,2.03
2022-12-09T23:42:53.549Z,2.08
2022-12-09T23:45:25.521Z,2.10
2022-12-09T23:47:57.440Z,2.12
2022-12-09T23:50:29.469Z,2.18
2022-12-09T23:53:01.414Z,2.18
2022-12-09T23:55:33.401Z,2.12
2022-12-09T23:58:05.344Z,2.08
